Time;durP1;ratioP1;P1;durP2;ratioP2;P2;SDS_P1;SDS_P2;PMS_P1;PMS_P2;Temp;Humidity;BMP_temperature;BMP_pressure;BME280_temperature;BME280_humidity;BME280_pressure;Samples;Min_cycle;Max_cycle;Signal;HPM_P1;HPM_P2
2022/08/19 00:00:24;;;;;;;9.87;8.97;;;20.50;99.90;;;;;;5034271;28;20211;-75
2022/08/19 00:02:51;;;;;;;13.13;12.03;;;20.50;99.90;;;;;;5015646;28;20177;-75
2022/08/19 00:05:18;;;;;;;10.80;9.57;;;20.50;99.90;;;;;;5032537;28;20454;-75
2022/08/19 00:07:44;;;;;;;11.40;10.00;;;20.50;99.90;;;;;;5033186;28;20443;-75
2022/08/19 00:10:11;;;;;;;12.77;11.37;;;20.50;99.90;;;;;;5032971;28;20942;-75
2022/08/19 00:12:37;;;;;;;11.70;10.60;;;20.50;99.90;;;;;;5033026;28;20239;-74
2022/08/19 00:15:13;;;;;;;11.23;10.10;;;20.50;99.90;;;;;;5032570;28;20491;-75
2022/08/19 00:17:40;;;;;;;12.40;11.17;;;20.50;99.90;;;;;;5032747;28;20405;-74
2022/08/19 00:20:07;;;;;;;11.43;10.13;;;20.50;99.90;;;;;;5032377;28;20431;-73
2022/08/19 00:22:33;;;;;;;12.07;10.50;;;20.50;99.90;;;;;;5032513;28;20411;-74
2022/08/19 00:24:58;;;;;;;13.73;11.37;;;20.50;99.90;;;;;;5032492;28;20406;-74
2022/08/19 00:27:24;;;;;;;11.60;10.53;;;20.50;99.90;;;;;;5032638;28;20308;-73
2022/08/19 00:29:50;;;;;;;11.13;10.10;;;20.50;99.90;;;;;;5032493;28;20204;-74
2022/08/19 00:32:16;;;;;;;10.67;9.60;;;20.50;99.90;;;;;;5032510;28;20185;-74
2022/08/19 00:34:41;;;;;;;12.13;10.60;;;20.50;99.90;;;;;;5032019;28;20403;-74
2022/08/19 00:37:07;;;;;;;12.40;11.20;;;20.50;99.90;;;;;;5014449;28;20173;-73
2022/08/19 00:39:32;;;;;;;11.57;10.40;;;20.50;99.90;;;;;;5032279;28;20192;-74
2022/08/19 00:41:58;;;;;;;13.10;11.67;;;20.50;99.90;;;;;;5032311;28;20590;-74
2022/08/19 00:44:28;;;;;;;14.03;12.53;;;20.50;99.90;;;;;;5032377;28;20428;-74
2022/08/19 00:46:58;;;;;;;13.83;12.00;;;20.50;99.90;;;;;;5032006;28;20612;-74
2022/08/19 00:49:51;;;;;;;15.00;13.17;;;20.50;99.90;;;;;;5032637;28;20434;-74
2022/08/19 00:52:30;;;;;;;14.77;13.27;;;20.50;99.90;;;;;;5024802;28;20424;-73
2022/08/19 00:54:58;;;;;;;13.50;12.20;;;20.40;99.90;;;;;;5033055;28;20514;-74
2022/08/19 00:57:32;;;;;;;12.97;11.50;;;20.40;99.90;;;;;;5032540;28;20498;-75
2022/08/19 00:59:59;;;;;;;14.73;13.07;;;20.50;99.90;;;;;;5031896;28;20435;-74
2022/08/19 01:02:26;;;;;;;13.70;12.40;;;20.50;99.90;;;;;;5032447;28;20446;-73
2022/08/19 01:04:51;;;;;;;12.70;11.40;;;20.50;99.90;;;;;;5032560;28;20411;-75
2022/08/19 01:07:17;;;;;;;12.37;11.10;;;20.40;99.90;;;;;;5032827;28;20491;-73
2022/08/19 01:09:43;;;;;;;12.67;11.50;;;20.40;99.90;;;;;;5032410;28;20565;-74
2022/08/19 01:12:09;;;;;;;11.80;10.57;;;20.40;99.90;;;;;;5032217;28;20403;-72
2022/08/19 01:14:38;;;;;;;13.83;12.50;;;20.40;99.90;;;;;;5031864;28;20607;-73
2022/08/19 01:17:04;;;;;;;11.70;10.50;;;20.30;99.90;;;;;;5031939;28;20369;-73
2022/08/19 01:19:35;;;;;;;11.57;10.37;;;20.30;99.90;;;;;;5032160;28;20435;-73
2022/08/19 01:22:12;;;;;;;12.57;11.30;;;20.30;99.90;;;;;;5029593;28;20411;-73
2022/08/19 01:24:37;;;;;;;11.80;10.60;;;20.20;99.90;;;;;;5031653;28;20406;-73
2022/08/19 01:27:07;;;;;;;12.57;11.33;;;20.20;99.90;;;;;;5031725;28;20462;-73
2022/08/19 01:29:33;;;;;;;11.93;10.73;;;20.20;99.90;;;;;;5031685;28;20194;-73
2022/08/19 01:32:00;;;;;;;12.43;11.13;;;20.20;99.90;;;;;;5031739;28;20417;-74
2022/08/19 01:34:25;;;;;;;12.93;11.73;;;20.20;99.90;;;;;;5031655;28;20421;-74
2022/08/19 01:36:51;;;;;;;13.20;11.80;;;20.20;99.90;;;;;;5031376;28;20904;-74
2022/08/19 01:39:23;;;;;;;13.20;11.90;;;20.20;99.90;;;;;;5031768;28;20212;-73
2022/08/19 01:41:49;;;;;;;12.43;11.23;;;20.20;99.90;;;;;;5013962;28;20187;-74
2022/08/19 01:44:16;;;;;;;12.70;11.40;;;20.20;99.90;;;;;;5031487;28;20419;-72
2022/08/19 01:46:43;;;;;;;16.87;15.27;;;20.20;99.90;;;;;;5031355;28;20439;-74
2022/08/19 01:49:09;;;;;;;11.73;10.47;;;20.20;99.90;;;;;;5013779;28;20447;-73
2022/08/19 01:51:35;;;;;;;13.30;11.90;;;20.20;99.90;;;;;;5031455;28;20780;-74
2022/08/19 01:54:01;;;;;;;14.57;12.47;;;20.30;99.90;;;;;;5031757;28;20409;-74
2022/08/19 01:56:27;;;;;;;12.70;11.50;;;20.30;99.90;;;;;;5031262;28;20622;-73
2022/08/19 01:59:01;;;;;;;13.87;12.57;;;20.20;99.90;;;;;;5031343;28;20171;-73
2022/08/19 02:01:26;;;;;;;13.47;12.07;;;20.20;99.90;;;;;;5031285;28;20305;-72
2022/08/19 02:03:53;;;;;;;13.70;12.10;;;20.20;99.90;;;;;;5031369;28;20471;-73
2022/08/19 02:06:18;;;;;;;15.00;13.40;;;20.20;99.90;;;;;;5030929;28;20190;-74
2022/08/19 02:08:47;;;;;;;15.27;13.67;;;20.20;99.90;;;;;;5031375;28;20460;-73
2022/08/19 02:11:26;;;;;;;14.67;13.13;;;20.20;99.90;;;;;;5031217;28;20276;-74
2022/08/19 02:13:53;;;;;;;16.37;14.03;;;20.20;99.90;;;;;;5031248;28;20576;-74
2022/08/19 02:16:20;;;;;;;14.00;12.60;;;20.20;99.90;;;;;;5031061;28;20412;-73
2022/08/19 02:18:48;;;;;;;15.00;12.30;;;20.20;99.90;;;;;;5033995;28;20416;-74
2022/08/19 02:21:15;;;;;;;14.83;13.33;;;20.10;99.90;;;;;;5034762;28;20808;-74
2022/08/19 02:23:41;;;;;;;15.77;14.03;;;20.00;99.90;;;;;;5035059;28;20405;-75
2022/08/19 02:26:07;;;;;;;13.80;11.80;;;20.00;99.90;;;;;;5034334;28;20483;-75
2022/08/19 02:28:33;;;;;;;16.53;12.70;;;20.00;99.90;;;;;;5034703;28;20644;-75
2022/08/19 02:31:00;;;;;;;14.27;12.70;;;20.00;99.90;;;;;;5034564;28;20193;-74
2022/08/19 02:33:26;;;;;;;13.47;12.07;;;20.00;99.90;;;;;;5034411;28;20422;-75
2022/08/19 02:35:51;;;;;;;13.80;11.90;;;19.90;99.90;;;;;;5034086;28;20977;-74
2022/08/19 02:38:26;;;;;;;14.07;12.73;;;19.90;99.90;;;;;;5035053;28;20179;-74
2022/08/19 02:41:01;;;;;;;15.20;13.60;;;19.90;99.90;;;;;;5034304;28;20215;-74
2022/08/19 02:43:28;;;;;;;13.47;12.07;;;19.90;99.90;;;;;;5034560;28;20417;-75
2022/08/19 02:45:54;;;;;;;14.23;12.00;;;19.90;99.90;;;;;;5034659;28;20768;-76
2022/08/19 02:48:22;;;;;;;15.13;13.33;;;19.90;99.90;;;;;;5034598;28;20514;-75
2022/08/19 02:50:54;;;;;;;14.63;12.43;;;19.90;99.90;;;;;;5034949;28;20186;-75
2022/08/19 02:53:26;;;;;;;13.67;11.80;;;19.90;99.90;;;;;;5035656;28;20413;-73
2022/08/19 02:55:51;;;;;;;13.90;12.17;;;19.90;99.90;;;;;;5036670;28;20419;-74
2022/08/19 02:58:18;;;;;;;13.17;11.60;;;19.90;99.90;;;;;;5038487;28;20895;-75
2022/08/19 03:00:48;;;;;;;13.27;11.97;;;19.90;99.90;;;;;;5038441;28;20303;-74
2022/08/19 03:03:14;;;;;;;13.10;11.73;;;19.90;99.90;;;;;;5037860;28;20422;-75
2022/08/19 03:05:40;;;;;;;13.70;11.87;;;19.80;99.90;;;;;;5034387;28;20913;-74
2022/08/19 03:08:06;;;;;;;17.73;13.27;;;19.80;99.90;;;;;;5034090;28;20455;-74
2022/08/19 03:10:32;;;;;;;15.83;12.27;;;19.80;99.90;;;;;;5033755;28;20436;-74
2022/08/19 03:12:58;;;;;;;16.00;12.70;;;19.80;99.90;;;;;;5034042;28;20183;-74
2022/08/19 03:15:24;;;;;;;12.20;10.90;;;19.80;99.90;;;;;;5033632;28;20411;-74
2022/08/19 03:17:49;;;;;;;14.13;12.73;;;19.80;99.90;;;;;;5033893;28;20181;-74
2022/08/19 03:20:15;;;;;;;14.63;13.10;;;19.80;99.90;;;;;;5033580;28;20435;-74
2022/08/19 03:22:40;;;;;;;12.73;11.43;;;19.70;99.90;;;;;;5033844;28;20203;-73
2022/08/19 03:25:06;;;;;;;11.23;10.00;;;19.70;99.90;;;;;;5033144;28;20709;-73
2022/08/19 03:27:32;;;;;;;14.63;11.23;;;19.70;99.90;;;;;;5033509;28;20203;-74
2022/08/19 03:29:58;;;;;;;16.53;12.73;;;19.70;99.90;;;;;;5032444;28;20200;-72
2022/08/19 03:32:23;;;;;;;12.67;11.43;;;19.70;99.90;;;;;;5033989;28;20164;-72
2022/08/19 03:34:50;;;;;;;12.90;11.57;;;19.70;99.90;;;;;;5033283;28;20196;-73
2022/08/19 03:37:16;;;;;;;15.20;13.07;;;19.70;99.90;;;;;;5034022;28;20180;-73
2022/08/19 03:39:42;;;;;;;14.27;12.77;;;19.70;99.90;;;;;;5033683;28;20815;-73
2022/08/19 03:42:08;;;;;;;13.27;11.90;;;19.70;99.90;;;;;;5033416;28;20180;-73
2022/08/19 03:44:36;;;;;;;14.13;12.53;;;19.70;99.90;;;;;;5033388;28;20185;-72
2022/08/19 03:47:01;;;;;;;14.60;12.77;;;19.70;99.90;;;;;;5033294;28;20539;-71
2022/08/19 03:49:30;;;;;;;19.67;14.80;;;19.60;99.90;;;;;;5033217;28;20526;-72
2022/08/19 03:51:58;;;;;;;15.73;12.60;;;19.60;99.90;;;;;;5033075;28;20167;-73
2022/08/19 03:54:25;;;;;;;15.60;14.00;;;19.60;99.90;;;;;;5032882;28;20412;-72
2022/08/19 03:56:53;;;;;;;16.57;13.60;;;19.70;99.90;;;;;;5033005;28;20409;-71
2022/08/19 03:59:28;;;;;;;13.63;11.93;;;19.60;99.90;;;;;;5032756;28;20401;-71
2022/08/19 04:01:56;;;;;;;13.13;11.73;;;19.60;99.90;;;;;;5033067;28;20561;-73
2022/08/19 04:04:22;;;;;;;14.53;13.03;;;19.60;99.90;;;;;;5033142;28;20402;-73
2022/08/19 04:06:48;;;;;;;15.47;13.83;;;19.60;99.90;;;;;;5015375;28;20413;-73
2022/08/19 04:09:14;;;;;;;15.07;13.43;;;19.60;99.90;;;;;;5033565;28;20445;-73
2022/08/19 04:11:46;;;;;;;14.30;13.00;;;19.60;99.90;;;;;;5033449;28;20501;-73
2022/08/19 04:14:18;;;;;;;16.83;12.93;;;19.70;99.90;;;;;;5032818;28;20481;-74
2022/08/19 04:16:44;;;;;;;15.27;13.77;;;19.70;99.90;;;;;;5032745;28;20576;-74
2022/08/19 04:19:10;;;;;;;17.63;14.00;;;19.70;99.90;;;;;;5032973;28;20398;-73
2022/08/19 04:21:36;;;;;;;16.13;13.20;;;19.70;99.90;;;;;;5032736;28;20430;-74
2022/08/19 04:24:03;;;;;;;16.30;12.93;;;19.70;99.90;;;;;;5033594;28;21103;-73
2022/08/19 04:26:33;;;;;;;15.73;14.13;;;19.70;99.90;;;;;;5032987;28;20740;-73
2022/08/19 04:29:01;;;;;;;14.40;13.00;;;19.80;99.90;;;;;;5032804;28;20476;-73
2022/08/19 04:31:32;;;;;;;13.80;12.40;;;19.80;99.90;;;;;;5033363;28;20435;-73
2022/08/19 04:34:01;;;;;;;16.20;14.50;;;19.80;99.90;;;;;;5033858;28;20408;-72
2022/08/19 04:36:33;;;;;;;15.07;13.67;;;19.80;99.90;;;;;;5034409;28;20407;-72
2022/08/19 04:39:04;;;;;;;15.33;13.77;;;19.90;99.90;;;;;;5035141;28;20496;-73
2022/08/19 04:44:17;;;;;;;15.37;13.87;;;19.90;99.90;;;;;;5032694;28;21024;-73
2022/08/19 04:46:43;;;;;;;13.77;12.47;;;19.90;99.90;;;;;;5032715;28;20410;-72
2022/08/19 04:49:09;;;;;;;15.80;14.20;;;19.90;99.90;;;;;;5032477;28;20419;-72
2022/08/19 04:51:36;;;;;;;14.40;13.00;;;19.90;99.90;;;;;;5032276;28;20901;-74
2022/08/19 04:54:03;;;;;;;15.33;12.57;;;20.00;99.90;;;;;;5032561;28;20246;-73
2022/08/19 04:56:29;;;;;;;14.23;12.70;;;19.90;99.90;;;;;;5032029;28;20456;-74
2022/08/19 04:58:56;;;;;;;13.40;12.00;;;20.00;99.90;;;;;;5032164;28;20506;-74
2022/08/19 05:01:26;;;;;;;15.10;13.50;;;20.00;99.90;;;;;;5044742;22;20717;-71
2022/08/19 05:03:52;;;;;;;12.23;11.00;;;20.00;99.90;;;;;;5031038;28;20413;-72
2022/08/19 05:06:20;;;;;;;15.70;11.57;;;20.10;99.90;;;;;;5030534;28;20784;-72
2022/08/19 05:08:46;;;;;;;12.77;11.40;;;20.10;99.90;;;;;;5031120;28;20998;-71
2022/08/19 05:11:25;;;;;;;12.20;10.90;;;20.20;99.90;;;;;;5030935;28;20504;-72
2022/08/19 05:13:52;;;;;;;12.07;10.90;;;20.10;99.90;;;;;;5031263;28;20394;-72
2022/08/19 05:16:20;;;;;;;12.93;11.63;;;20.10;99.90;;;;;;5030942;28;20420;-71
2022/08/19 05:24:17;;;;;;;13.90;12.07;;;20.30;99.90;;;;;;5031181;28;20464;-71
2022/08/19 05:26:46;;;;;;;13.30;11.23;;;20.20;99.90;;;;;;5030468;28;20513;-71
2022/08/19 05:29:13;;;;;;;11.17;10.03;;;20.30;99.90;;;;;;5030797;28;20493;-71
2022/08/19 05:31:39;;;;;;;12.53;11.33;;;20.50;99.90;;;;;;5012690;28;20444;-71
2022/08/19 05:34:05;;;;;;;11.63;10.50;;;20.40;99.90;;;;;;5028504;28;20433;-70
2022/08/19 05:36:39;;;;;;;11.27;10.17;;;20.60;99.90;;;;;;5029766;28;20891;-71
2022/08/19 05:39:06;;;;;;;12.17;10.90;;;20.70;99.90;;;;;;5030850;28;20399;-72
2022/08/19 05:41:31;;;;;;;10.90;9.80;;;20.80;99.90;;;;;;5030757;28;20920;-70
2022/08/19 05:44:00;;;;;;;10.77;9.67;;;21.00;99.90;;;;;;5031499;28;20406;-71
2022/08/19 05:46:26;;;;;;;9.60;8.70;;;21.10;99.90;;;;;;5031763;28;20173;-71
2022/08/19 05:48:51;;;;;;;10.07;8.20;;;21.20;99.90;;;;;;5049513;28;20460;-72
2022/08/19 05:51:17;;;;;;;10.03;9.00;;;21.10;99.90;;;;;;5032663;28;20199;-71
2022/08/19 05:53:44;;;;;;;11.97;9.47;;;21.00;99.90;;;;;;5033532;28;20632;-71
2022/08/19 05:56:12;;;;;;;11.50;10.27;;;21.10;99.90;;;;;;5034764;28;20583;-72
2022/08/19 05:58:38;;;;;;;10.27;9.30;;;21.20;99.90;;;;;;5034210;28;20779;-71
2022/08/19 06:01:10;;;;;;;12.33;10.70;;;21.50;99.90;;;;;;5034206;28;20818;-72
2022/08/19 06:03:37;;;;;;;10.50;9.57;;;21.80;99.90;;;;;;5034305;28;20429;-71
2022/08/19 06:06:03;;;;;;;10.17;9.17;;;21.70;99.90;;;;;;5034771;28;20932;-72
2022/08/19 06:08:29;;;;;;;10.47;9.47;;;21.90;99.90;;;;;;5031088;28;20504;-72
2022/08/19 06:10:55;;;;;;;10.80;9.70;;;21.80;99.90;;;;;;5034251;28;20510;-71
2022/08/19 06:13:22;;;;;;;10.63;9.73;;;21.60;99.90;;;;;;5034223;28;20560;-71
2022/08/19 06:15:48;;;;;;;10.90;9.77;;;21.60;99.90;;;;;;5033804;28;20420;-71
2022/08/19 06:18:15;;;;;;;10.77;9.77;;;21.70;99.90;;;;;;5034085;28;20411;-73
2022/08/19 06:20:41;;;;;;;10.53;9.43;;;21.70;99.90;;;;;;5033917;28;20433;-72
2022/08/19 06:23:08;;;;;;;11.37;10.27;;;21.60;99.90;;;;;;5034435;28;20505;-72
2022/08/19 06:25:34;;;;;;;11.70;10.60;;;21.60;99.90;;;;;;5033775;28;20499;-72
2022/08/19 06:28:00;;;;;;;10.60;9.70;;;21.60;99.90;;;;;;5033649;28;21136;-71
2022/08/19 06:30:26;;;;;;;12.00;10.73;;;21.60;99.90;;;;;;5033761;28;20443;-71
2022/08/19 06:32:52;;;;;;;10.90;9.83;;;21.50;99.90;;;;;;5035972;28;20199;-72
2022/08/19 06:35:17;;;;;;;12.50;11.40;;;21.70;99.90;;;;;;5033428;28;20451;-72
2022/08/19 06:37:44;;;;;;;12.03;10.93;;;21.70;99.90;;;;;;5033645;28;20219;-72
2022/08/19 06:40:10;;;;;;;11.63;10.53;;;21.70;99.90;;;;;;5033855;28;20203;-71
2022/08/19 06:42:38;;;;;;;12.47;11.27;;;21.80;99.90;;;;;;5036701;28;20425;-72
2022/08/19 06:45:05;;;;;;;12.37;11.17;;;21.90;99.90;;;;;;5033874;28;20922;-71
2022/08/19 06:47:34;;;;;;;12.30;11.00;;;22.00;99.90;;;;;;5033970;28;20446;-72
2022/08/19 06:50:02;;;;;;;12.47;11.27;;;22.00;99.90;;;;;;5034855;28;20427;-72
2022/08/19 06:52:30;;;;;;;11.33;10.23;;;22.00;99.90;;;;;;5035566;28;20399;-72
2022/08/19 06:54:56;;;;;;;13.47;11.23;;;22.00;99.90;;;;;;5035075;28;20474;-72
2022/08/19 06:57:27;;;;;;;12.33;11.13;;;22.10;99.90;;;;;;5016969;28;20435;-74
2022/08/19 06:59:52;;;;;;;12.70;11.47;;;22.20;99.90;;;;;;5034031;28;20417;-73
2022/08/19 07:02:20;;;;;;;12.33;10.87;;;22.10;99.90;;;;;;5034078;28;20964;-72
2022/08/19 07:04:45;;;;;;;11.83;10.37;;;22.00;99.90;;;;;;5033572;28;20178;-72
2022/08/19 07:07:14;;;;;;;12.43;11.17;;;22.00;99.90;;;;;;5033736;28;20454;-72
2022/08/19 07:09:43;;;;;;;12.37;11.17;;;21.90;99.90;;;;;;5033339;28;20524;-73
2022/08/19 07:12:11;;;;;;;12.73;11.53;;;21.90;99.90;;;;;;5033481;28;20484;-73
2022/08/19 07:14:38;;;;;;;12.60;11.37;;;21.80;99.90;;;;;;5032941;28;20405;-73
2022/08/19 07:17:06;;;;;;;13.23;11.07;;;21.80;99.90;;;;;;5032947;28;20486;-72
2022/08/19 07:19:32;;;;;;;13.50;12.20;;;21.90;99.90;;;;;;5033236;28;20405;-72
2022/08/19 07:22:02;;;;;;;13.23;11.97;;;22.00;99.90;;;;;;5032760;28;20521;-73
2022/08/19 07:24:27;;;;;;;13.07;11.77;;;22.00;99.90;;;;;;5032750;28;20446;-72
2022/08/19 07:27:00;;;;;;;13.43;12.23;;;22.00;99.90;;;;;;5032535;28;20444;-71
2022/08/19 07:29:26;;;;;;;15.30;12.17;;;22.00;99.90;;;;;;5033144;28;20452;-72
2022/08/19 07:31:55;;;;;;;12.63;11.40;;;22.20;99.90;;;;;;5032763;28;20433;-73
2022/08/19 07:34:22;;;;;;;13.57;12.40;;;22.10;99.90;;;;;;5033267;28;20779;-72
2022/08/19 07:36:49;;;;;;;13.10;11.80;;;22.10;99.90;;;;;;5034150;28;20474;-72
2022/08/19 07:39:25;;;;;;;13.97;12.53;;;22.10;99.90;;;;;;5016830;28;20744;-72
2022/08/19 07:41:51;;;;;;;13.23;11.80;;;22.10;99.90;;;;;;5045093;28;20482;-72
2022/08/19 07:44:18;;;;;;;14.20;12.73;;;22.20;99.90;;;;;;5053863;28;20416;-72
2022/08/19 07:46:50;;;;;;;13.60;12.23;;;22.20;99.90;;;;;;5052265;28;20212;-72
2022/08/19 07:49:19;;;;;;;14.73;12.30;;;22.30;99.90;;;;;;5053279;28;20767;-74
2022/08/19 07:52:06;;;;;;;13.67;12.37;;;22.20;99.90;;;;;;5053571;28;20439;-74
2022/08/19 07:54:35;;;;;;;13.73;12.30;;;22.30;99.90;;;;;;5053091;28;20428;-73
2022/08/19 07:57:01;;;;;;;14.43;12.97;;;22.20;99.90;;;;;;5053138;28;20417;-71
2022/08/19 07:59:30;;;;;;;16.17;14.50;;;22.20;99.90;;;;;;5055082;28;20413;-72
2022/08/19 08:01:59;;;;;;;15.80;14.20;;;22.20;99.90;;;;;;5055487;28;20610;-72
2022/08/19 08:09:53;;;;;;;14.57;13.27;;;22.40;99.90;;;;;;5054894;28;20408;-73
2022/08/19 08:12:28;;;;;;;13.57;12.17;;;22.60;99.90;;;;;;5054068;28;20420;-73
2022/08/19 08:14:56;;;;;;;14.03;12.63;;;22.60;99.90;;;;;;5053945;28;20179;-73
2022/08/19 08:17:25;;;;;;;14.10;12.60;;;22.50;99.90;;;;;;5055222;28;20471;-73
2022/08/19 08:19:51;;;;;;;15.10;13.07;;;22.70;99.90;;;;;;5023522;28;20422;-73
2022/08/19 08:25:13;;;;;;;13.63;12.23;;;22.90;99.90;;;;;;5035119;28;20231;-73
2022/08/19 08:27:40;;;;;;;14.50;13.10;;;22.80;99.90;;;;;;5035422;28;20461;-74
2022/08/19 08:30:09;;;;;;;14.30;12.90;;;22.50;99.90;;;;;;5017087;28;20444;-73
2022/08/19 08:32:37;;;;;;;14.67;13.23;;;22.70;99.90;;;;;;5035075;28;20907;-74
2022/08/19 08:35:08;;;;;;;15.03;13.70;;;22.90;99.90;;;;;;5035708;28;20611;-73
2022/08/19 08:37:33;;;;;;;16.40;14.80;;;22.90;99.90;;;;;;5035812;28;20421;-72
2022/08/19 08:40:04;;;;;;;14.00;12.67;;;22.90;99.90;;;;;;5017378;28;20496;-74
2022/08/19 08:42:40;;;;;;;14.10;12.70;;;22.90;99.90;;;;;;5051209;28;20739;-73
2022/08/19 08:45:14;;;;;;;14.73;13.33;;;22.70;99.90;;;;;;5054465;28;20488;-73
2022/08/19 08:47:46;;;;;;;15.10;13.60;;;22.80;99.90;;;;;;5055005;28;21018;-72
2022/08/19 08:50:32;;;;;;;16.53;13.63;;;22.80;99.90;;;;;;5054377;28;20504;-72
2022/08/19 08:52:58;;;;;;;15.33;13.90;;;23.10;99.90;;;;;;5055886;28;20941;-73
2022/08/19 08:55:28;;;;;;;15.10;13.60;;;23.20;99.90;;;;;;5055094;28;20407;-72
2022/08/19 08:58:20;;;;;;;14.40;12.50;;;23.20;99.90;;;;;;5055336;28;20503;-74
2022/08/19 09:00:49;;;;;;;14.37;13.07;;;23.00;99.90;;;;;;5055012;28;20547;-72
2022/08/19 09:03:22;;;;;;;14.23;13.00;;;23.10;99.90;;;;;;5055728;28;20438;-72
2022/08/19 09:06:31;;;;;;;13.97;12.57;;;23.40;99.90;;;;;;5054826;28;20432;-73
2022/08/19 09:09:30;;;;;;;13.03;11.73;;;23.30;99.90;;;;;;5043185;28;20892;-72
2022/08/19 09:12:34;;;;;;;13.17;12.07;;;23.10;99.90;;;;;;5055490;28;20497;-72
2022/08/19 09:15:09;;;;;;;14.70;13.50;;;23.20;99.90;;;;;;5039258;28;20419;-72
2022/08/19 09:17:38;;;;;;;13.60;12.20;;;23.00;99.90;;;;;;5054497;28;20401;-72
2022/08/19 09:20:14;;;;;;;12.63;11.43;;;23.00;99.90;;;;;;5038875;28;20418;-73
2022/08/19 09:22:43;;;;;;;14.13;12.83;;;23.20;99.90;;;;;;5035110;28;20404;-72
2022/08/19 09:25:12;;;;;;;14.67;13.40;;;23.20;99.90;;;;;;5034890;28;20481;-71
2022/08/19 09:27:39;;;;;;;12.70;11.40;;;23.50;99.90;;;;;;5036840;28;20475;-73
2022/08/19 09:30:07;;;;;;;13.07;11.87;;;23.70;99.90;;;;;;5038596;28;20495;-72
2022/08/19 09:32:32;;;;;;;12.73;11.60;;;23.90;99.90;;;;;;5039369;28;20405;-72
2022/08/19 09:35:00;;;;;;;12.93;11.63;;;23.90;99.90;;;;;;5037975;28;20483;-72
2022/08/19 09:37:25;;;;;;;12.80;11.60;;;24.00;99.90;;;;;;5038034;28;20186;-74
2022/08/19 09:39:52;;;;;;;11.63;10.57;;;24.00;99.90;;;;;;5037483;28;20731;-72
2022/08/19 09:42:18;;;;;;;12.20;11.10;;;24.10;99.90;;;;;;5039542;28;20187;-71
2022/08/19 09:44:44;;;;;;;12.10;10.97;;;24.40;99.90;;;;;;5057378;28;20482;-72
2022/08/19 09:47:12;;;;;;;11.43;10.23;;;24.30;99.90;;;;;;5057448;28;20831;-71
2022/08/19 09:49:39;;;;;;;12.03;10.80;;;24.60;99.90;;;;;;5057737;28;20724;-71
2022/08/19 09:52:07;;;;;;;13.30;12.00;;;24.90;99.90;;;;;;5057936;28;20414;-71
2022/08/19 09:54:33;;;;;;;11.03;10.03;;;24.80;99.90;;;;;;5058712;28;20796;-71
2022/08/19 09:57:02;;;;;;;11.60;10.60;;;24.90;99.90;;;;;;5042626;28;20425;-72
2022/08/19 09:59:28;;;;;;;11.60;10.43;;;24.70;99.90;;;;;;5037654;28;20508;-71
2022/08/19 10:01:54;;;;;;;15.37;13.80;;;24.60;99.90;;;;;;5050528;28;20492;-71
2022/08/19 10:05:47;;;;;;;11.80;10.60;;;24.50;99.90;;;;;;5056988;28;20427;-71
2022/08/19 10:07:08;;;;;;;11.20;9.70;;;24.50;99.90;;;;;;5057244;28;20200;-72
2022/08/19 10:09:34;;;;;;;12.67;11.50;;;24.70;99.90;;;;;;5056302;28;20489;-72
2022/08/19 10:12:01;;;;;;;11.70;10.70;;;24.50;99.90;;;;;;5037341;28;20281;-73
2022/08/19 10:14:27;;;;;;;11.10;10.10;;;24.50;99.90;;;;;;5037559;28;20238;-72
2022/08/19 10:16:53;;;;;;;9.87;9.00;;;24.50;99.90;;;;;;5036274;28;20928;-71
2022/08/19 10:19:21;;;;;;;11.30;10.30;;;24.40;99.90;;;;;;5036603;28;20168;-70
2022/08/19 10:21:46;;;;;;;11.93;10.83;;;24.50;99.90;;;;;;5036403;28;20221;-71
2022/08/19 10:24:12;;;;;;;10.80;9.90;;;24.30;99.90;;;;;;5036749;28;20412;-71
2022/08/19 10:26:41;;;;;;;11.80;10.60;;;24.10;99.90;;;;;;5036858;28;20577;-71
2022/08/19 10:29:07;;;;;;;12.57;11.37;;;24.10;99.90;;;;;;5036119;28;20208;-73
2022/08/19 10:31:34;;;;;;;11.90;10.67;;;24.00;99.90;;;;;;5036442;28;20848;-71
2022/08/19 10:34:00;;;;;;;10.67;9.77;;;24.20;99.90;;;;;;5036723;28;20180;-71
2022/08/19 10:36:32;;;;;;;11.30;10.20;;;23.70;99.90;;;;;;5035222;28;20422;-70
2022/08/19 10:39:00;;;;;;;11.33;10.33;;;23.60;99.90;;;;;;5034737;28;20773;-69
2022/08/19 10:41:30;;;;;;;11.70;10.60;;;23.70;99.90;;;;;;5042471;28;20440;-70
2022/08/19 10:43:59;;;;;;;12.63;10.50;;;23.70;99.90;;;;;;5055054;28;20409;-70
2022/08/19 10:46:26;;;;;;;12.20;11.00;;;23.70;99.90;;;;;;5054031;28;20526;-70
2022/08/19 10:48:53;;;;;;;11.67;10.57;;;23.80;99.90;;;;;;5037296;28;20463;-70
2022/08/19 10:54:04;;;;;;;11.93;10.40;;;24.20;99.90;;;;;;5055067;28;20518;-71
2022/08/19 10:59:15;;;;;;;10.80;9.87;;;24.00;99.90;;;;;;5035667;28;20252;-71
2022/08/19 11:01:43;;;;;;;11.30;9.70;;;23.80;99.90;;;;;;5055576;22;20513;-73
2022/08/19 11:04:13;;;;;;;12.03;10.73;;;23.80;99.90;;;;;;5033948;28;20409;-72
2022/08/19 11:06:41;;;;;;;12.00;10.90;;;23.90;99.90;;;;;;5033672;28;20396;-72
2022/08/19 11:09:08;;;;;;;12.27;11.10;;;23.80;99.90;;;;;;5034000;28;20445;-73
2022/08/19 11:11:40;;;;;;;11.63;10.53;;;23.60;99.90;;;;;;5016430;28;20438;-73
2022/08/19 11:14:11;;;;;;;12.50;11.20;;;23.70;99.90;;;;;;5034238;28;20446;-71
2022/08/19 11:16:38;;;;;;;11.30;10.30;;;23.70;99.90;;;;;;5034287;28;20407;-73
2022/08/19 11:19:07;;;;;;;11.17;10.00;;;23.40;99.90;;;;;;5035835;28;20791;-74
2022/08/19 11:21:42;;;;;;;10.90;9.90;;;23.50;99.90;;;;;;5037613;28;20485;-73
2022/08/19 11:24:14;;;;;;;12.00;10.90;;;23.50;99.90;;;;;;5034517;28;20489;-73
2022/08/19 11:26:42;;;;;;;11.90;10.73;;;23.60;99.90;;;;;;5033547;28;20500;-72
2022/08/19 11:29:12;;;;;;;11.90;10.83;;;23.50;99.90;;;;;;5033711;28;20464;-73
2022/08/19 11:31:40;;;;;;;10.63;9.73;;;23.40;99.90;;;;;;5034027;28;20437;-71
2022/08/19 11:34:08;;;;;;;11.27;10.17;;;23.40;99.90;;;;;;5033059;28;20971;-72
2022/08/19 11:36:37;;;;;;;11.20;10.13;;;23.50;99.90;;;;;;5032615;28;20503;-73
2022/08/19 11:39:04;;;;;;;11.80;10.70;;;23.50;99.90;;;;;;5032967;28;20483;-73
2022/08/19 11:41:29;;;;;;;10.83;9.83;;;23.50;99.90;;;;;;5033159;28;20464;-72
2022/08/19 11:43:55;;;;;;;10.87;9.87;;;23.50;99.90;;;;;;5033129;28;20838;-73
2022/08/19 11:46:23;;;;;;;15.70;14.20;;;23.40;99.90;;;;;;5032863;28;20172;-73
2022/08/19 11:48:50;;;;;;;10.93;9.93;;;23.40;99.90;;;;;;5033200;28;20278;-72
2022/08/19 11:51:19;;;;;;;19.67;16.87;;;23.30;99.90;;;;;;5031810;28;20839;-73
2022/08/19 11:53:46;;;;;;;10.07;9.13;;;23.30;99.90;;;;;;5032757;28;21107;-74
2022/08/19 11:56:12;;;;;;;11.03;8.57;;;23.20;99.90;;;;;;5032505;28;20855;-73
2022/08/19 11:58:38;;;;;;;9.57;8.63;;;23.30;99.90;;;;;;5015052;28;20417;-73
2022/08/19 12:01:15;;;;;;;10.37;9.30;;;23.40;99.90;;;;;;5032492;28;20438;-73
2022/08/19 12:03:43;;;;;;;9.40;8.50;;;23.40;99.90;;;;;;5032728;28;20433;-73
2022/08/19 12:06:14;;;;;;;9.63;8.63;;;23.60;99.90;;;;;;5031972;28;20716;-73
2022/08/19 12:08:40;;;;;;;9.37;8.60;;;24.00;99.90;;;;;;5032673;28;20449;-72
2022/08/19 12:11:07;;;;;;;9.20;8.40;;;23.90;99.90;;;;;;5032474;28;20935;-73
2022/08/19 12:13:34;;;;;;;9.53;8.57;;;24.10;99.90;;;;;;5032840;28;20409;-74
2022/08/19 12:16:06;;;;;;;8.60;7.80;;;24.10;99.90;;;;;;5032355;28;20532;-74
2022/08/19 12:18:32;;;;;;;8.33;7.70;;;24.10;99.90;;;;;;5032306;28;20406;-72
2022/08/19 12:21:00;;;;;;;7.53;6.93;;;24.10;99.90;;;;;;5032207;28;20823;-73
2022/08/19 12:23:26;;;;;;;8.90;8.10;;;24.20;99.90;;;;;;5032295;28;20648;-73
2022/08/19 12:25:51;;;;;;;8.27;7.50;;;24.20;99.90;;;;;;5031939;28;20406;-72
2022/08/19 12:28:19;;;;;;;8.97;8.10;;;24.20;99.90;;;;;;5032209;28;20201;-73
2022/08/19 12:30:45;;;;;;;7.93;7.27;;;24.10;99.90;;;;;;5014369;28;20194;-73
2022/08/19 12:33:13;;;;;;;7.77;7.00;;;24.40;99.90;;;;;;5031997;28;20884;-73
2022/08/19 12:35:44;;;;;;;7.23;6.47;;;24.30;99.90;;;;;;5026628;28;20447;-73
2022/08/19 12:38:10;;;;;;;7.87;7.20;;;24.80;99.90;;;;;;5032044;28;20408;-73
2022/08/19 12:40:37;;;;;;;15.43;13.63;;;24.90;99.90;;;;;;5031938;28;20806;-73
2022/08/19 12:43:02;;;;;;;7.13;6.30;;;24.80;99.90;;;;;;5032017;28;20499;-72
2022/08/19 12:45:28;;;;;;;7.53;6.70;;;24.60;99.90;;;;;;5031471;28;20489;-73
2022/08/19 12:47:54;;;;;;;7.00;6.40;;;24.70;99.90;;;;;;5031460;28;20527;-73
2022/08/19 12:50:21;;;;;;;8.17;7.10;;;24.50;99.90;;;;;;5031547;28;20169;-73
2022/08/19 12:52:47;;;;;;;10.10;7.40;;;24.60;99.90;;;;;;5031788;28;20238;-74
2022/08/19 12:55:12;;;;;;;8.27;7.47;;;24.60;99.90;;;;;;5031688;28;20901;-74
2022/08/19 12:57:38;;;;;;;7.80;7.20;;;24.70;99.90;;;;;;5032211;28;20169;-74